createdAt,value
2017-03-05T00:01:41.234Z,39.8
2017-03-05T00:04:13.728Z,39.8
2017-03-05T00:06:46.623Z,39.8
2017-03-05T00:09:19.131Z,39.7
2017-03-05T00:11:51.617Z,39.7
2017-03-05T00:14:24.098Z,39.6
2017-03-05T00:16:56.998Z,39.7
2017-03-05T00:19:29.476Z,39.7
2017-03-05T00:22:02.398Z,39.7
2017-03-05T00:24:35.313Z,39.7
2017-03-05T00:27:08.255Z,39.6
2017-03-05T00:29:40.721Z,39.6
2017-03-05T00:32:13.205Z,39.6
2017-03-05T00:34:45.692Z,39.6
2017-03-05T00:37:18.185Z,39.6
2017-03-05T00:39:51.087Z,39.6
2017-03-05T00:42:23.570Z,39.6
2017-03-05T00:44:56.060Z,39.6
2017-03-05T00:47:28.579Z,39.6
2017-03-05T00:50:01.063Z,39.5
2017-03-05T00:52:33.547Z,39.6
2017-03-05T00:55:06.064Z,39.6
2017-03-05T00:57:38.552Z,39.4
2017-03-05T01:00:11.046Z,39.5
2017-03-05T01:02:43.523Z,39.5
2017-03-05T01:05:16.234Z,39.5
2017-03-05T01:07:48.715Z,39.4
2017-03-05T01:10:21.190Z,39.5
2017-03-05T01:12:53.731Z,39.4
2017-03-05T01:15:26.654Z,39.4
2017-03-05T01:17:59.139Z,39.4
2017-03-05T01:20:31.622Z,39.4
2017-03-05T01:23:04.094Z,39.5
2017-03-05T01:25:36.572Z,39.4
2017-03-05T01:28:09.067Z,39.4
2017-03-05T01:30:41.546Z,39.4
2017-03-05T01:33:14.039Z,39.4
2017-03-05T01:35:46.537Z,39.4
2017-03-05T01:38:19.859Z,39.4
2017-03-05T01:40:52.347Z,39.4
2017-03-05T01:43:24.803Z,39.3
2017-03-05T01:45:57.301Z,39.4
2017-03-05T01:48:29.791Z,39.3
2017-03-05T01:51:02.692Z,39.3
2017-03-05T01:53:35.604Z,39.3
2017-03-05T01:56:08.082Z,39.3
2017-03-05T01:58:40.556Z,39.5
2017-03-05T02:01:13.032Z,39.3
2017-03-05T02:03:45.521Z,39.3
2017-03-05T02:06:18.414Z,39.3
2017-03-05T02:08:50.877Z,39.3
2017-03-05T02:11:23.791Z,39.3
2017-03-05T02:13:56.280Z,39.4
2017-03-05T02:16:28.760Z,39.3
2017-03-05T02:19:01.240Z,39.2
2017-03-05T02:21:33.739Z,39.4
2017-03-05T02:24:06.209Z,39.3
2017-03-05T02:26:39.124Z,39.3
2017-03-05T02:29:11.597Z,39.3
2017-03-05T02:31:44.098Z,39.3
2017-03-05T02:34:16.590Z,39.3
2017-03-05T02:36:49.100Z,39.3
2017-03-05T02:39:21.575Z,39.3
2017-03-05T02:41:54.479Z,39.2
2017-03-05T02:44:26.967Z,39.3
2017-03-05T02:46:59.875Z,39.3
2017-03-05T02:49:32.367Z,39.3
2017-03-05T02:52:05.283Z,39.3
2017-03-05T02:54:38.186Z,39.3
2017-03-05T02:57:10.666Z,39.3
2017-03-05T02:59:43.171Z,39.2
2017-03-05T03:02:15.658Z,39.2
2017-03-05T03:04:48.134Z,39.2
2017-03-05T03:07:21.472Z,39.2
2017-03-05T03:09:53.969Z,39.2
2017-03-05T03:12:26.446Z,39.2
2017-03-05T03:14:58.927Z,39.3
2017-03-05T03:17:31.414Z,39.2
2017-03-05T03:20:03.907Z,39.2
2017-03-05T03:22:36.403Z,39.2
2017-03-05T03:25:08.879Z,39.2
2017-03-05T03:27:41.376Z,39.2
2017-03-05T03:30:13.894Z,39.3
2017-03-05T03:32:46.998Z,39.2
2017-03-05T03:35:19.472Z,39.2
2017-03-05T03:37:51.971Z,39.2
2017-03-05T03:40:24.465Z,39.2
2017-03-05T03:42:56.948Z,39.2
2017-03-05T03:45:29.445Z,39.3
2017-03-05T03:48:01.921Z,39.2
2017-03-05T03:50:34.845Z,39.2
2017-03-05T03:53:07.341Z,39.2
2017-03-05T03:55:39.823Z,39.3
2017-03-05T03:58:12.318Z,39.3
2017-03-05T04:00:44.803Z,39.2
2017-03-05T04:03:17.727Z,39.2
2017-03-05T04:05:50.207Z,39.2
2017-03-05T04:08:22.707Z,39.2
2017-03-05T04:10:55.332Z,39.1
2017-03-05T04:13:27.797Z,39.2
2017-03-05T04:16:00.258Z,39.2
2017-03-05T04:18:32.739Z,39.2
2017-03-05T04:21:05.226Z,39.1
2017-03-05T04:23:39.046Z,39.2
2017-03-05T04:26:12.346Z,39.2
2017-03-05T04:28:44.881Z,39.2
2017-03-05T04:31:17.379Z,39.2
2017-03-05T04:33:50.331Z,39.2
2017-03-05T04:36:22.816Z,39.2
2017-03-05T04:38:55.728Z,39.2
2017-03-05T04:41:28.646Z,39.2
2017-03-05T04:44:02.159Z,39.2
2017-03-05T04:46:35.045Z,39.3
2017-03-05T04:49:07.537Z,39.2
2017-03-05T04:51:40.435Z,39.2
2017-03-05T04:54:13.331Z,39.3
2017-03-05T04:56:45.808Z,39.2
2017-03-05T04:59:18.302Z,39.2
2017-03-05T05:01:50.764Z,39.2
2017-03-05T05:04:23.666Z,39.2
2017-03-05T05:06:56.152Z,39.2
2017-03-05T05:09:28.634Z,39.2
2017-03-05T05:12:01.120Z,39.2
2017-03-05T05:14:33.615Z,39.2
2017-03-05T05:17:06.548Z,39.1
2017-03-05T05:19:39.020Z,39.2
2017-03-05T05:22:11.476Z,39.1
2017-03-05T05:24:44.362Z,39.2
2017-03-05T05:27:16.844Z,39.2
2017-03-05T05:29:49.335Z,39.2
2017-03-05T05:32:21.827Z,39.1
2017-03-05T05:34:54.325Z,39.2
2017-03-05T05:37:27.219Z,39.2
2017-03-05T05:39:59.720Z,39.2
2017-03-05T05:42:32.205Z,39.2
2017-03-05T05:45:04.691Z,39.2
2017-03-05T05:47:37.175Z,39.2
2017-03-05T05:50:10.042Z,39.2
2017-03-05T05:52:42.562Z,38.8
2017-03-05T05:55:16.530Z,38.6
2017-03-05T05:58:00.709Z,39
2017-03-05T06:00:45.764Z,39
2017-03-05T06:03:36.064Z,39.3
2017-03-05T06:06:24.936Z,39.4
2017-03-05T06:09:09.183Z,39.5
2017-03-05T06:11:57.507Z,39.7
2017-03-05T06:15:06.298Z,40
2017-03-05T06:18:05.842Z,40.2
2017-03-05T06:20:38.754Z,40.4
2017-03-05T06:23:11.251Z,40.4
2017-03-05T06:25:44.160Z,40.3
2017-03-05T06:28:16.651Z,40.2
2017-03-05T06:30:49.607Z,40.1
2017-03-05T06:33:22.082Z,40
2017-03-05T06:35:54.594Z,40
2017-03-05T06:38:27.485Z,40
2017-03-05T06:40:59.984Z,40
2017-03-05T06:43:32.462Z,39.9
2017-03-05T06:46:04.941Z,40
2017-03-05T06:48:37.418Z,40
2017-03-05T06:51:10.347Z,39.9
2017-03-05T06:53:43.246Z,39.9
2017-03-05T06:56:15.935Z,39.9
2017-03-05T06:58:48.398Z,39.9
2017-03-05T07:01:20.884Z,39.9
2017-03-05T07:03:53.372Z,39.9
2017-03-05T07:06:25.874Z,39.9
2017-03-05T07:08:58.358Z,40
2017-03-05T07:11:30.847Z,40
2017-03-05T07:14:04.181Z,40.2
2017-03-05T07:16:36.678Z,40.1
2017-03-05T07:19:09.158Z,40.2
2017-03-05T07:21:41.663Z,40.2
2017-03-05T07:24:14.151Z,40.2
2017-03-05T07:26:46.673Z,40.1
2017-03-05T07:29:19.159Z,40.2
2017-03-05T07:31:51.660Z,40.1
2017-03-05T07:34:24.176Z,40.2
2017-03-05T07:36:56.670Z,40.2
2017-03-05T07:39:29.173Z,40.1
2017-03-05T07:42:02.078Z,40.2
2017-03-05T07:44:34.540Z,40.2
2017-03-05T07:47:07.025Z,40.2
2017-03-05T07:49:39.504Z,40.3
2017-03-05T07:52:12.005Z,40.3
2017-03-05T07:54:44.488Z,40.3
2017-03-05T07:57:16.986Z,40.4
2017-03-05T07:59:49.484Z,40.3
2017-03-05T08:02:22.392Z,40.3
2017-03-05T08:04:54.890Z,40.2
2017-03-05T08:07:27.388Z,40.2
2017-03-05T08:09:59.870Z,40.2
2017-03-05T08:12:32.369Z,40
2017-03-05T08:15:04.866Z,40.1
2017-03-05T08:17:37.356Z,40
2017-03-05T08:20:10.275Z,40
2017-03-05T08:22:42.763Z,39.9
2017-03-05T08:25:15.334Z,40
2017-03-05T08:27:48.231Z,39.9
2017-03-05T08:30:20.766Z,39.9
2017-03-05T08:32:53.715Z,39.9
2017-03-05T08:35:26.227Z,39.9
2017-03-05T08:37:58.724Z,40
2017-03-05T08:40:31.604Z,39.9
2017-03-05T08:43:04.530Z,39.9
2017-03-05T08:45:37.015Z,40
2017-03-05T08:48:09.948Z,40
2017-03-05T08:50:42.893Z,40
2017-03-05T08:53:15.423Z,40
2017-03-05T08:55:47.901Z,40
2017-03-05T08:58:20.853Z,40.1
2017-03-05T09:00:53.344Z,40.2
2017-03-05T09:03:26.277Z,40
2017-03-05T09:05:58.754Z,40.2
2017-03-05T09:08:31.285Z,40.1
2017-03-05T09:11:03.785Z,40.1
2017-03-05T09:13:36.265Z,40.1
2017-03-05T09:16:08.767Z,40
2017-03-05T09:18:41.273Z,40.2
2017-03-05T09:21:13.775Z,40.2
2017-03-05T09:23:46.679Z,40.1
2017-03-05T09:26:19.181Z,40.1
2017-03-05T09:28:51.677Z,40.1
2017-03-05T09:31:24.161Z,40.1
2017-03-05T09:33:57.086Z,40.1
2017-03-05T09:36:29.599Z,40
2017-03-05T09:39:02.957Z,40.1
2017-03-05T09:41:35.445Z,40
2017-03-05T09:44:07.980Z,40
2017-03-05T09:46:40.477Z,40
2017-03-05T09:49:12.949Z,40
2017-03-05T09:51:45.436Z,40
2017-03-05T09:54:18.116Z,40
2017-03-05T09:56:51.034Z,40
2017-03-05T09:59:23.523Z,39.9
2017-03-05T10:01:56.001Z,40
2017-03-05T10:04:28.484Z,40
2017-03-05T10:07:01.412Z,40
2017-03-05T10:09:33.901Z,40
2017-03-05T10:12:06.385Z,40
2017-03-05T10:14:39.735Z,39.9
2017-03-05T10:17:12.247Z,40
2017-03-05T10:19:44.722Z,39.9
2017-03-05T10:22:17.244Z,40
2017-03-05T10:24:49.723Z,40
2017-03-05T10:27:22.228Z,40
2017-03-05T10:29:54.728Z,40
2017-03-05T10:32:28.096Z,40
2017-03-05T10:35:01.064Z,40
2017-03-05T10:37:34.011Z,40
2017-03-05T10:40:06.486Z,40
2017-03-05T10:42:38.974Z,40.1
2017-03-05T10:45:11.476Z,40.1
2017-03-05T10:47:43.953Z,40.1
2017-03-05T10:50:16.447Z,40.1
2017-03-05T10:52:48.962Z,40.2
2017-03-05T10:55:21.461Z,40.2
2017-03-05T10:57:53.961Z,40.1
2017-03-05T11:00:26.459Z,40.1
2017-03-05T11:02:58.959Z,40.1
2017-03-05T11:05:31.443Z,40
2017-03-05T11:08:03.933Z,40
2017-03-05T11:10:36.854Z,40
2017-03-05T11:13:09.345Z,40
2017-03-05T11:15:42.254Z,40
2017-03-05T11:18:15.194Z,40
2017-03-05T11:20:47.740Z,40
2017-03-05T11:23:20.224Z,40.1
2017-03-05T11:25:52.724Z,40
2017-03-05T11:28:25.222Z,40
2017-03-05T11:30:57.715Z,40
2017-03-05T11:33:30.207Z,39.9
2017-03-05T11:36:02.678Z,40
2017-03-05T11:38:35.175Z,40
2017-03-05T11:41:07.676Z,40
2017-03-05T11:43:40.168Z,40
2017-03-05T11:46:12.674Z,40
2017-03-05T11:48:46.049Z,40
2017-03-05T11:51:18.953Z,40.1
2017-03-05T11:53:51.428Z,40
2017-03-05T11:56:24.348Z,40
2017-03-05T11:58:56.844Z,40
2017-03-05T12:01:29.753Z,40
2017-03-05T12:04:02.698Z,40.1
2017-03-05T12:06:35.173Z,40.1
2017-03-05T12:09:07.679Z,40.1
2017-03-05T12:11:40.147Z,40
2017-03-05T12:14:13.079Z,40.1
2017-03-05T12:16:45.573Z,40
2017-03-05T12:19:18.054Z,40
2017-03-05T12:21:50.535Z,40.1
2017-03-05T12:24:23.439Z,40
2017-03-05T12:26:55.931Z,40
2017-03-05T12:29:28.441Z,40
2017-03-05T12:32:00.931Z,40
2017-03-05T12:34:33.444Z,40.1
2017-03-05T12:37:05.927Z,40
2017-03-05T12:39:38.471Z,40.1
2017-03-05T12:42:11.408Z,40.1
2017-03-05T12:44:43.915Z,40.1
2017-03-05T12:47:16.417Z,40.1
2017-03-05T12:49:48.920Z,40
2017-03-05T12:52:21.409Z,40
2017-03-05T12:54:53.929Z,40
2017-03-05T12:57:26.849Z,40.1
2017-03-05T12:59:59.351Z,40.1
2017-03-05T13:02:32.275Z,40.1
2017-03-05T13:05:05.634Z,40.1
2017-03-05T13:07:38.181Z,40
2017-03-05T13:10:10.686Z,40
2017-03-05T13:12:43.185Z,39.6
2017-03-05T13:15:16.280Z,39.6
2017-03-05T13:17:53.581Z,39.7
2017-03-05T13:20:30.887Z,39.6
2017-03-05T13:23:22.366Z,39.8
2017-03-05T13:26:08.836Z,39.5
2017-03-05T13:29:07.699Z,39.2
2017-03-05T13:32:17.754Z,39.4
2017-03-05T13:35:33.127Z,39.1
2017-03-05T13:41:36.694Z,39.1
2017-03-05T13:44:48.472Z,39.1
2017-03-05T13:47:57.441Z,38.9
2017-03-05T13:51:08.272Z,38.8
2017-03-05T13:54:03.079Z,39.3
2017-03-05T13:57:06.681Z,39.5
2017-03-05T14:00:08.369Z,39.3
2017-03-05T14:03:12.399Z,39
2017-03-05T14:06:17.879Z,38.9
2017-03-05T14:09:11.397Z,38.8
2017-03-05T14:11:58.577Z,38.8
2017-03-05T14:14:46.367Z,38.8
2017-03-05T14:17:43.329Z,38.8
2017-03-05T14:20:34.357Z,38.7
2017-03-05T14:23:21.149Z,38.7
2017-03-05T14:25:57.588Z,38.9
2017-03-05T14:28:33.145Z,38.9
2017-03-05T14:31:09.698Z,39.1
2017-03-05T14:33:45.409Z,39.3
2017-03-05T14:36:21.061Z,39.3
2017-03-05T14:38:54.744Z,39.7
2017-03-05T14:41:28.932Z,40
2017-03-05T14:44:05.515Z,40
2017-03-05T14:46:40.568Z,40
2017-03-05T14:49:20.298Z,40.1
2017-03-05T14:51:55.170Z,40
2017-03-05T14:54:29.041Z,40
2017-03-05T14:57:02.665Z,40
2017-03-05T14:59:35.789Z,40
2017-03-05T15:02:09.932Z,39.9
2017-03-05T15:04:42.803Z,40
2017-03-05T15:07:16.586Z,39.9
2017-03-05T15:09:50.879Z,39.9
2017-03-05T15:12:27.296Z,39.9
2017-03-05T15:15:04.005Z,39.8
2017-03-05T15:17:39.234Z,39.9
2017-03-05T15:20:14.063Z,39.9
2017-03-05T15:22:47.895Z,39.8
2017-03-05T15:25:21.892Z,39.9
2017-03-05T15:27:58.104Z,39.9
2017-03-05T15:30:34.921Z,39.8
2017-03-05T15:33:19.337Z,39.9
2017-03-05T15:35:57.267Z,40
2017-03-05T15:38:36.338Z,40
2017-03-05T15:41:23.307Z,40
2017-03-05T15:44:01.348Z,39.9
2017-03-05T15:46:42.294Z,39.9
2017-03-05T15:49:30.587Z,39.9
2017-03-05T15:52:09.870Z,39.9
2017-03-05T15:54:56.696Z,40
2017-03-05T15:57:46.885Z,40
2017-03-05T16:00:25.354Z,40
2017-03-05T16:03:01.195Z,40.1
2017-03-05T16:05:34.097Z,40
2017-03-05T16:08:09.235Z,40
2017-03-05T16:10:47.897Z,40.1
2017-03-05T16:13:24.135Z,40
2017-03-05T16:16:01.608Z,40
2017-03-05T16:18:37.383Z,40
2017-03-05T16:21:17.977Z,40.1
2017-03-05T16:23:59.226Z,40.1
2017-03-05T16:26:32.681Z,40.2
2017-03-05T16:29:08.570Z,40.3
2017-03-05T16:31:45.368Z,40.2
2017-03-05T16:34:22.034Z,40.3
2017-03-05T16:36:55.624Z,40.3
2017-03-05T16:39:29.829Z,40.3
2017-03-05T16:42:03.897Z,40.3
2017-03-05T16:44:40.307Z,40.2
2017-03-05T16:47:14.835Z,40.3
2017-03-05T16:49:49.223Z,40.3
2017-03-05T16:52:22.149Z,40.3
2017-03-05T16:54:55.953Z,40.3
2017-03-05T16:57:30.674Z,40.4
2017-03-05T17:00:05.569Z,40.1
2017-03-05T17:02:39.739Z,40.4
2017-03-05T17:05:14.197Z,40.4
2017-03-05T17:07:52.368Z,40.4
2017-03-05T17:10:28.350Z,40.4
2017-03-05T17:13:04.923Z,40.4
2017-03-05T17:15:37.973Z,40.4
2017-03-05T17:18:11.694Z,40.4
2017-03-05T17:20:47.122Z,40.4
2017-03-05T17:23:20.357Z,40.3
2017-03-05T17:25:53.303Z,40.4
2017-03-05T17:28:26.607Z,40.4
2017-03-05T17:30:59.728Z,40.4
2017-03-05T17:33:33.088Z,40.4
2017-03-05T17:36:06.666Z,40.4
2017-03-05T17:38:40.169Z,40.4
2017-03-05T17:41:13.127Z,40.4
2017-03-05T17:43:47.306Z,40.5
2017-03-05T17:46:21.258Z,40.4
2017-03-05T17:48:55.623Z,40.6
2017-03-05T17:51:28.297Z,40.5
2017-03-05T17:54:02.169Z,40.5
2017-03-05T17:56:38.684Z,40.5
2017-03-05T17:59:17.359Z,40.4
2017-03-05T18:01:55.579Z,40.4
2017-03-05T18:04:35.721Z,40.4
2017-03-05T18:07:14.780Z,40.5
2017-03-05T18:09:49.480Z,40.5
2017-03-05T18:12:29.922Z,40.4
2017-03-05T18:15:07.159Z,40.4
2017-03-05T18:17:46.960Z,40.6
2017-03-05T18:20:25.919Z,40.5
2017-03-05T18:23:02.234Z,40.5
2017-03-05T18:25:39.269Z,40.4
2017-03-05T18:28:14.253Z,40.4
2017-03-05T18:30:47.236Z,40.4
2017-03-05T18:33:21.160Z,40.4
2017-03-05T18:35:56.684Z,40.4
2017-03-05T18:38:30.851Z,40.5
2017-03-05T18:41:04.000Z,40.4
2017-03-05T18:43:38.947Z,40.4
2017-03-05T18:46:13.686Z,40.5
2017-03-05T18:48:48.061Z,40.5
2017-03-05T18:51:24.735Z,40.5
2017-03-05T18:53:57.907Z,40.5
2017-03-05T18:56:31.918Z,40.5
2017-03-05T18:59:06.876Z,40.4
2017-03-05T19:01:40.348Z,40.4
2017-03-05T19:04:12.927Z,40.4
2017-03-05T19:06:45.560Z,40.4
2017-03-05T19:09:18.697Z,40.4
2017-03-05T19:11:51.317Z,40.4
2017-03-05T19:14:23.978Z,40.3
2017-03-05T19:16:56.559Z,40.4
2017-03-05T19:19:29.525Z,40.4
2017-03-05T19:22:04.828Z,40.2
2017-03-05T19:24:38.163Z,40.4
2017-03-05T19:27:11.480Z,40.4
2017-03-05T19:29:45.391Z,40.2
2017-03-05T19:32:36.266Z,40.2
2017-03-05T19:35:14.883Z,40.3
2017-03-05T19:37:49.885Z,40.4
2017-03-05T19:40:22.976Z,40.3
2017-03-05T19:42:59.561Z,40.4
2017-03-05T19:45:40.231Z,40.4
2017-03-05T19:48:14.998Z,40.5
2017-03-05T19:50:50.418Z,40.5
2017-03-05T19:53:29.635Z,40.5
2017-03-05T19:56:02.486Z,40.6
2017-03-05T19:58:37.163Z,40.6
2017-03-05T20:01:10.799Z,40.6
2017-03-05T20:03:46.306Z,40.7
2017-03-05T20:06:20.735Z,40.6
2017-03-05T20:08:53.739Z,40.5
2017-03-05T20:11:26.281Z,40.7
2017-03-05T20:13:59.187Z,40.6
2017-03-05T20:16:32.136Z,40.7
2017-03-05T20:19:04.656Z,40.6
2017-03-05T20:21:37.139Z,40.6
2017-03-05T20:24:09.624Z,40.6
2017-03-05T20:26:42.098Z,40.5
2017-03-05T20:29:14.974Z,40.6
2017-03-05T20:31:47.474Z,40.5
2017-03-05T20:34:20.146Z,40.4
2017-03-05T20:36:52.626Z,40.5
2017-03-05T20:39:25.123Z,40.4
2017-03-05T20:41:58.021Z,40.4
2017-03-05T20:44:30.516Z,40.8
2017-03-05T20:47:03.856Z,40.7
2017-03-05T20:49:36.382Z,40.9
2017-03-05T20:52:09.313Z,41
2017-03-05T20:54:41.854Z,40.9
2017-03-05T20:57:14.342Z,40.8
2017-03-05T20:59:47.410Z,40.8
2017-03-05T21:02:19.953Z,40.7
2017-03-05T21:04:52.427Z,40.8
2017-03-05T21:07:25.408Z,40.8
2017-03-05T21:09:57.896Z,40.7
2017-03-05T21:12:30.366Z,40.6
2017-03-05T21:15:02.856Z,40.6
2017-03-05T21:17:35.817Z,40.6
2017-03-05T21:20:08.297Z,40.6
2017-03-05T21:22:40.763Z,40.6
2017-03-05T21:25:13.377Z,40.5
2017-03-05T21:27:45.877Z,40.6
2017-03-05T21:30:18.795Z,40.5
2017-03-05T21:32:51.705Z,40.5
2017-03-05T21:35:24.206Z,40.5
2017-03-05T21:37:57.102Z,40.5
2017-03-05T21:40:29.773Z,40.5
2017-03-05T21:43:02.254Z,40.6
2017-03-05T21:45:34.747Z,40.7
2017-03-05T21:48:07.664Z,40.8
2017-03-05T21:50:40.599Z,40.8
2017-03-05T21:53:13.580Z,40.9
2017-03-05T21:55:46.064Z,40.9
2017-03-05T21:58:18.541Z,40.8
2017-03-05T22:00:51.428Z,40.9
2017-03-05T22:03:23.922Z,40.9
2017-03-05T22:05:56.429Z,40.9
2017-03-05T22:08:28.915Z,40.9
2017-03-05T22:11:01.576Z,40.8
2017-03-05T22:13:34.062Z,40.9
2017-03-05T22:16:06.569Z,40.9
2017-03-05T22:18:39.062Z,40.8
2017-03-05T22:21:12.422Z,40.8
2017-03-05T22:23:44.929Z,40.9
2017-03-05T22:26:17.492Z,40.8
2017-03-05T22:28:49.982Z,40.9
2017-03-05T22:31:22.912Z,40.8
2017-03-05T22:33:55.393Z,40.8
2017-03-05T22:36:28.128Z,40.9
2017-03-05T22:39:00.612Z,40.8
2017-03-05T22:41:33.809Z,40.9
2017-03-05T22:44:06.281Z,41
2017-03-05T22:46:38.757Z,40.9
2017-03-05T22:49:11.242Z,41
2017-03-05T22:51:43.722Z,41
2017-03-05T22:54:16.212Z,40.9
2017-03-05T22:56:48.692Z,41
2017-03-05T22:59:21.632Z,40.9
2017-03-05T23:01:54.962Z,40.9
2017-03-05T23:04:27.468Z,40.9
2017-03-05T23:06:59.941Z,40.8
2017-03-05T23:09:32.420Z,40.8
2017-03-05T23:12:04.906Z,40.7
2017-03-05T23:14:37.458Z,40.9
2017-03-05T23:17:09.942Z,40.9
2017-03-05T23:19:42.430Z,40.7
2017-03-05T23:22:14.919Z,40.8
2017-03-05T23:24:47.408Z,40.8
2017-03-05T23:27:19.900Z,40.8
2017-03-05T23:29:52.370Z,40.7
2017-03-05T23:32:24.836Z,40.8
2017-03-05T23:34:57.307Z,40.7
2017-03-05T23:37:29.771Z,40.8
2017-03-05T23:40:02.670Z,40.8
2017-03-05T23:42:35.172Z,40.8
2017-03-05T23:45:07.640Z,40.8
2017-03-05T23:47:40.134Z,40.7
2017-03-05T23:50:13.037Z,40.7
2017-03-05T23:52:45.506Z,40.7
2017-03-05T23:55:18.013Z,40.7
2017-03-05T23:57:50.911Z,40.7
